Time;durP1;ratioP1;P1;durP2;ratioP2;P2;SDS_P1;SDS_P2;PMS_P1;PMS_P2;Temp;Humidity;BMP_temperature;BMP_pressure;BME280_temperature;BME280_humidity;BME280_pressure;Samples;Min_cycle;Max_cycle;Signal;HPM_P1;HPM_P2
2022/05/17 00:00:43;;;;;;;;;;;;;;;16.91;71.74;98317.78;5159474;27;19923;-59
2022/05/17 00:03:13;;;;;;;;;;;;;;;16.89;71.88;98318.13;5154510;27;20326;-59
2022/05/17 00:05:43;;;;;;;;;;;;;;;16.88;71.97;98312.97;5168677;27;20371;-59
2022/05/17 00:08:11;;;;;;;;;;;;;;;16.95;71.80;98307.72;5150163;27;19922;-59
2022/05/17 00:10:39;;;;;;;;;;;;;;;16.94;71.66;98306.94;5150940;27;19922;-59
2022/05/17 00:13:07;;;;;;;;;;;;;;;16.92;72.08;98311.16;5174853;27;19925;-59
2022/05/17 00:15:35;;;;;;;;;;;;;;;16.93;72.05;98307.25;5160734;27;19954;-59
2022/05/17 00:18:03;;;;;;;;;;;;;;;16.93;71.80;98316.28;5172431;27;20354;-59
2022/05/17 00:20:33;;;;;;;;;;;;;;;16.97;71.63;98313.66;5160957;27;20374;-59
2022/05/17 00:23:02;;;;;;;;;;;;;;;16.96;71.87;98306.59;5152739;27;20395;-59
2022/05/17 00:25:30;;;;;;;;;;;;;;;16.99;71.50;98312.19;5134695;27;20447;-59
2022/05/17 00:27:59;;;;;;;;;;;;;;;17.02;71.01;98307.94;5155498;27;19971;-59
2022/05/17 00:30:28;;;;;;;;;;;;;;;16.97;71.35;98306.22;5160548;27;19964;-59
2022/05/17 00:32:57;;;;;;;;;;;;;;;16.96;71.40;98301.09;5165244;27;20344;-61
2022/05/17 00:35:50;;;;;;;;;;;;;;;16.95;71.42;98318.72;5143119;27;20010;-59
2022/05/17 00:38:25;;;;;;;;;;;;;;;16.89;71.44;98309.09;5156600;27;19930;-59
2022/05/17 00:40:53;;;;;;;;;;;;;;;16.95;71.18;98303.03;5150734;27;19919;-59
2022/05/17 00:43:23;;;;;;;;;;;;;;;16.95;71.35;98302.25;5148333;27;20013;-59
2022/05/17 00:45:51;;;;;;;;;;;;;;;17.00;71.12;98302.00;5144291;27;19919;-59
2022/05/17 00:48:20;;;;;;;;;;;;;;;16.98;70.99;98298.78;5145173;27;20373;-59
2022/05/17 00:50:55;;;;;;;;;;;;;;;16.99;70.91;98303.13;5150127;27;19965;-59
2022/05/17 00:53:27;;;;;;;;;;;;;;;16.98;70.79;98310.56;5149809;27;19971;-59
2022/05/17 00:55:57;;;;;;;;;;;;;;;16.98;70.66;98309.78;5158037;27;20378;-59
2022/05/17 00:58:27;;;;;;;;;;;;;;;16.94;70.69;98295.97;5148742;27;20373;-59
2022/05/17 01:01:02;;;;;;;;;;;;;;;16.99;70.60;98303.13;5158494;27;19923;-59
2022/05/17 01:03:34;;;;;;;;;;;;;;;16.99;70.54;98305.88;5152650;27;19925;-59
2022/05/17 01:09:26;;;;;;;;;;;;;;;16.98;70.32;98304.28;5151413;27;19945;-59
2022/05/17 01:11:54;;;;;;;;;;;;;;;16.98;70.60;98301.53;5174818;27;20021;-58
2022/05/17 01:17:08;;;;;;;;;;;;;;;16.93;70.48;98310.00;5151971;27;20021;-59
2022/05/17 01:19:38;;;;;;;;;;;;;;;16.91;70.42;98312.31;5147337;27;19941;-59
2022/05/17 01:22:08;;;;;;;;;;;;;;;16.91;70.52;98309.56;5151099;27;19991;-58
2022/05/17 01:24:35;;;;;;;;;;;;;;;16.85;70.22;98310.94;5142755;27;19919;-59
2022/05/17 01:27:05;;;;;;;;;;;;;;;16.93;70.18;98315.50;5163886;27;19923;-59
2022/05/17 01:29:37;;;;;;;;;;;;;;;16.83;70.32;98316.78;5159311;27;19923;-59
2022/05/17 01:32:06;;;;;;;;;;;;;;;16.84;70.20;98309.34;5149953;27;20005;-59
2022/05/17 01:34:34;;;;;;;;;;;;;;;16.86;70.21;98310.56;5147357;27;19923;-59
2022/05/17 01:37:02;;;;;;;;;;;;;;;16.87;69.93;98308.63;5133752;27;20014;-59
2022/05/17 01:39:32;;;;;;;;;;;;;;;16.84;70.11;98301.09;5141886;27;20006;-59
2022/05/17 01:42:00;;;;;;;;;;;;;;;16.83;69.75;98294.81;5156655;27;19971;-60
2022/05/17 01:44:28;;;;;;;;;;;;;;;16.98;69.59;98301.53;5159848;27;19941;-58
2022/05/17 01:46:57;;;;;;;;;;;;;;;16.90;69.54;98308.75;5164750;27;20362;-58
2022/05/17 01:49:26;;;;;;;;;;;;;;;16.87;69.55;98294.91;5166220;27;19954;-59
2022/05/17 01:51:54;;;;;;;;;;;;;;;16.85;69.59;98297.22;5147638;27;19935;-58
2022/05/17 02:03:52;;;;;;;;;;;;;;;16.81;69.43;98305.31;5137941;27;19934;-58
2022/05/17 02:06:20;;;;;;;;;;;;;;;16.81;69.16;98310.00;5143433;27;19919;-59
2022/05/17 02:08:48;;;;;;;;;;;;;;;16.81;69.19;98307.25;5161198;27;19923;-59
2022/05/17 02:11:16;;;;;;;;;;;;;;;16.78;69.43;98308.75;5161820;27;19926;-58
2022/05/17 02:13:45;;;;;;;;;;;;;;;16.79;69.43;98307.63;5166933;27;20335;-59
2022/05/17 02:16:15;;;;;;;;;;;;;;;16.74;69.40;98311.38;5135619;27;19958;-59
2022/05/17 02:18:48;;;;;;;;;;;;;;;16.81;68.95;98301.78;5164858;27;19919;-59
2022/05/17 02:21:41;;;;;;;;;;;;;;;16.69;69.30;98316.25;5170276;27;19922;-58
2022/05/17 02:24:14;;;;;;;;;;;;;;;16.68;69.44;98309.97;5155392;27;19923;-58
2022/05/17 02:26:42;;;;;;;;;;;;;;;16.67;69.68;98307.56;5158329;27;20009;-59
2022/05/17 02:29:35;;;;;;;;;;;;;;;16.64;69.74;98311.78;5157570;27;19976;-59
2022/05/17 02:32:04;;;;;;;;;;;;;;;16.61;69.62;98309.72;5164433;27;19940;-58
2022/05/17 02:34:35;;;;;;;;;;;;;;;16.52;70.08;98311.78;5164222;27;19919;-58
2022/05/17 02:40:09;;;;;;;;;;;;;;;16.56;69.87;98315.44;5149300;27;20339;-58
2022/05/17 02:42:37;;;;;;;;;;;;;;;16.61;69.74;98311.66;5136962;27;20251;-58
2022/05/17 02:45:28;;;;;;;;;;;;;;;16.54;70.02;98309.50;5152512;27;19918;-59
2022/05/17 02:47:58;;;;;;;;;;;;;;;16.45;70.47;98314.25;5167887;27;19918;-60
2022/05/17 02:50:26;;;;;;;;;;;;;;;16.44;70.34;98318.16;5132400;27;19962;-59
2022/05/17 02:52:54;;;;;;;;;;;;;;;16.34;70.74;98322.13;5157245;27;19923;-59
2022/05/17 02:55:22;;;;;;;;;;;;;;;16.35;70.83;98322.94;5141908;27;19943;-58
2022/05/17 02:57:53;;;;;;;;;;;;;;;16.34;70.92;98327.63;5147545;27;19919;-59
2022/05/17 03:00:22;;;;;;;;;;;;;;;16.33;70.95;98327.97;5134327;27;19931;-59
2022/05/17 03:02:50;;;;;;;;;;;;;;;16.27;71.22;98338.34;5152084;27;19919;-59
2022/05/17 03:05:20;;;;;;;;;;;;;;;16.21;71.25;98335.00;5163126;27;20291;-60
2022/05/17 03:07:49;;;;;;;;;;;;;;;16.24;71.27;98333.53;5148484;27;19919;-59
2022/05/17 03:10:17;;;;;;;;;;;;;;;16.43;70.73;98335.75;5141362;27;20420;-59
2022/05/17 03:13:10;;;;;;;;;;;;;;;16.33;70.90;98344.41;5150415;27;20279;-59
2022/05/17 03:15:39;;;;;;;;;;;;;;;16.39;70.80;98341.09;5173109;27;19971;-59
2022/05/17 03:18:07;;;;;;;;;;;;;;;16.34;70.76;98343.25;5166585;27;19926;-60
2022/05/17 03:20:36;;;;;;;;;;;;;;;16.27;71.04;98341.09;5145127;27;20008;-60
2022/05/17 03:23:06;;;;;;;;;;;;;;;16.24;71.32;98339.84;5147592;27;19927;-59
2022/05/17 03:25:45;;;;;;;;;;;;;;;16.16;71.49;98350.88;5142881;27;19919;-59
2022/05/17 03:28:14;;;;;;;;;;;;;;;16.17;71.31;98347.78;5149927;27;19988;-59
2022/05/17 03:30:42;;;;;;;;;;;;;;;16.13;71.50;98354.28;5168632;27;20346;-59
2022/05/17 03:33:10;;;;;;;;;;;;;;;16.13;71.68;98366.03;5152024;27;20327;-59
2022/05/17 03:35:46;;;;;;;;;;;;;;;16.10;71.70;98366.72;5157301;27;19919;-59
2022/05/17 03:38:14;;;;;;;;;;;;;;;16.12;71.58;98375.41;5133198;27;19920;-59
2022/05/17 03:40:42;;;;;;;;;;;;;;;16.06;71.82;98374.00;5132325;28;19927;-59
2022/05/17 03:43:10;;;;;;;;;;;;;;;16.11;71.84;98378.50;5132757;27;20326;-59
2022/05/17 03:45:38;;;;;;;;;;;;;;;16.07;71.68;98383.03;5135071;28;20358;-59
2022/05/17 03:48:07;;;;;;;;;;;;;;;16.08;71.56;98379.94;5132996;27;19926;-59
2022/05/17 03:50:35;;;;;;;;;;;;;;;16.12;71.50;98378.16;5134364;28;19930;-59
2022/05/17 03:53:07;;;;;;;;;;;;;;;16.07;71.69;98388.50;5150741;27;19919;-59
2022/05/17 03:55:36;;;;;;;;;;;;;;;16.01;71.65;98384.38;5154478;27;19923;-59
2022/05/17 03:58:04;;;;;;;;;;;;;;;15.97;71.94;98385.03;5152959;27;19923;-58
2022/05/17 04:00:56;;;;;;;;;;;;;;;15.99;71.96;98395.69;5167835;27;20030;-59
2022/05/17 04:03:25;;;;;;;;;;;;;;;16.08;71.60;98396.38;5143458;27;19947;-59
2022/05/17 04:05:53;;;;;;;;;;;;;;;15.99;71.75;98398.41;5154880;27;19954;-59
2022/05/17 04:08:23;;;;;;;;;;;;;;;15.99;71.81;98390.19;5154208;27;19919;-59
2022/05/17 04:10:52;;;;;;;;;;;;;;;15.94;72.07;98388.47;5158811;27;19984;-59
2022/05/17 04:13:23;;;;;;;;;;;;;;;15.88;71.97;98397.22;5138831;27;20014;-59
2022/05/17 04:15:53;;;;;;;;;;;;;;;15.94;72.06;98401.38;5138227;27;19926;-59
2022/05/17 04:18:21;;;;;;;;;;;;;;;15.84;71.99;98396.28;5152865;27;19919;-59
2022/05/17 04:20:49;;;;;;;;;;;;;;;15.83;72.30;98392.75;5158211;27;20362;-59
2022/05/17 04:23:17;;;;;;;;;;;;;;;15.91;72.29;98393.78;5121721;27;20390;-59
2022/05/17 04:25:47;;;;;;;;;;;;;;;16.04;71.63;98403.69;5138036;27;19919;-59
2022/05/17 04:28:17;;;;;;;;;;;;;;;16.00;71.35;98402.75;5135913;27;19962;-59
2022/05/17 04:30:45;;;;;;;;;;;;;;;15.98;71.64;98399.56;5137565;27;19919;-59
2022/05/17 04:33:12;;;;;;;;;;;;;;;16.07;71.64;98400.28;5140057;27;19919;-59
2022/05/17 04:35:46;;;;;;;;;;;;;;;16.06;71.39;98403.34;5137803;27;19919;-59
2022/05/17 04:38:15;;;;;;;;;;;;;;;15.92;71.62;98414.56;5151521;27;19922;-59
2022/05/17 04:40:43;;;;;;;;;;;;;;;15.90;71.59;98406.69;5157933;27;19965;-59
2022/05/17 04:43:12;;;;;;;;;;;;;;;15.98;71.47;98416.81;5154321;27;19944;-59
2022/05/17 04:45:41;;;;;;;;;;;;;;;15.96;71.65;98416.31;5136753;27;19926;-59
2022/05/17 04:48:09;;;;;;;;;;;;;;;16.01;71.43;98423.53;5156331;27;20497;-59
2022/05/17 04:50:38;;;;;;;;;;;;;;;16.09;71.23;98419.94;5177868;27;19919;-59
2022/05/17 04:53:06;;;;;;;;;;;;;;;16.06;71.15;98419.81;5164885;27;19923;-59
2022/05/17 04:55:36;;;;;;;;;;;;;;;16.15;71.08;98434.25;5164526;27;19923;-58
2022/05/17 04:58:05;;;;;;;;;;;;;;;16.21;71.02;98443.88;5156261;27;19926;-58
2022/05/17 05:00:59;;;;;;;;;;;;;;;16.37;70.31;98441.31;5175075;27;19919;-60
2022/05/17 05:03:27;;;;;;;;;;;;;;;16.36;70.22;98442.47;5158282;27;19919;-59
2022/05/17 05:05:55;;;;;;;;;;;;;;;16.32;70.18;98452.50;5140326;27;20016;-59
2022/05/17 05:08:25;;;;;;;;;;;;;;;16.16;70.66;98447.59;5149040;27;20263;-60
2022/05/17 05:10:57;;;;;;;;;;;;;;;16.25;70.49;98455.78;5143051;27;20609;-59
2022/05/17 05:13:25;;;;;;;;;;;;;;;16.34;70.19;98452.94;5135537;27;20051;-60
2022/05/17 05:15:54;;;;;;;;;;;;;;;16.39;69.89;98455.47;5141899;27;19919;-60
2022/05/17 05:18:23;;;;;;;;;;;;;;;16.29;70.42;98464.91;5145627;27;19926;-59
2022/05/17 05:20:52;;;;;;;;;;;;;;;16.35;70.15;98463.59;5156109;27;19943;-59
2022/05/17 05:23:20;;;;;;;;;;;;;;;16.41;70.18;98469.69;5154398;27;20347;-59
2022/05/17 05:25:48;;;;;;;;;;;;;;;16.54;69.89;98465.84;5146550;27;19981;-59
2022/05/17 05:28:16;;;;;;;;;;;;;;;16.59;69.62;98465.63;5151600;27;19919;-59
2022/05/17 05:30:44;;;;;;;;;;;;;;;16.69;69.48;98467.94;5150322;27;20254;-59
2022/05/17 05:33:12;;;;;;;;;;;;;;;16.80;69.09;98467.56;5159298;27;19919;-59
2022/05/17 05:35:46;;;;;;;;;;;;;;;16.75;68.77;98465.81;5174180;27;20395;-59
2022/05/17 05:38:14;;;;;;;;;;;;;;;16.77;68.87;98472.56;5167228;27;20386;-60
2022/05/17 05:40:42;;;;;;;;;;;;;;;16.77;69.14;98466.28;5145767;27;20429;-59
2022/05/17 05:43:10;;;;;;;;;;;;;;;16.94;68.67;98468.88;5153977;27;20061;-59
2022/05/17 05:45:39;;;;;;;;;;;;;;;16.92;68.47;98459.34;5160926;27;19919;-59
2022/05/17 05:48:07;;;;;;;;;;;;;;;16.95;68.42;98464.97;5163587;27;20124;-59
2022/05/17 05:50:35;;;;;;;;;;;;;;;17.05;68.31;98476.66;5155477;27;19926;-59
2022/05/17 05:53:06;;;;;;;;;;;;;;;16.96;68.23;98474.00;5150069;27;19958;-59
2022/05/17 05:55:34;;;;;;;;;;;;;;;16.90;68.64;98481.66;5163001;27;20013;-58
2022/05/17 05:58:04;;;;;;;;;;;;;;;16.98;68.22;98483.50;5156379;27;19923;-58
2022/05/17 06:00:32;;;;;;;;;;;;;;;17.02;68.16;98478.94;5149260;27;19926;-59
2022/05/17 06:03:00;;;;;;;;;;;;;;;16.97;68.08;98486.59;5154616;27;19919;-61
2022/05/17 06:05:31;;;;;;;;;;;;;;;17.00;68.24;98481.22;5160198;27;19919;-60
2022/05/17 06:07:59;;;;;;;;;;;;;;;17.04;68.03;98481.31;5154157;27;19919;-59
2022/05/17 06:10:30;;;;;;;;;;;;;;;17.03;68.22;98493.47;5149969;27;19919;-60
2022/05/17 06:13:00;;;;;;;;;;;;;;;17.28;67.69;98486.06;5158696;27;19919;-59
2022/05/17 06:15:28;;;;;;;;;;;;;;;17.43;67.48;98482.66;5154237;27;19931;-59
2022/05/17 06:18:02;;;;;;;;;;;;;;;17.62;66.87;98489.53;5139428;27;20022;-58
2022/05/17 06:20:30;;;;;;;;;;;;;;;17.65;66.42;98486.09;5153085;27;20030;-58
2022/05/17 06:22:58;;;;;;;;;;;;;;;17.86;65.21;98488.75;5123791;27;19923;-58
2022/05/17 06:28:38;;;;;;;;;;;;;;;18.07;64.16;98494.91;5144713;27;19919;-59
2022/05/17 06:31:31;;;;;;;;;;;;;;;18.02;63.96;98484.16;5152901;27;19946;-60
2022/05/17 06:34:00;;;;;;;;;;;;;;;18.21;63.49;98483.53;5146382;27;19923;-59
2022/05/17 06:36:28;;;;;;;;;;;;;;;18.11;63.73;98484.84;5157448;27;19989;-59
2022/05/17 06:39:16;;;;;;;;;;;;;;;18.13;62.92;98488.03;5136709;27;19919;-59
2022/05/17 06:41:51;;;;;;;;;;;;;;;18.18;63.01;98484.22;5150924;27;19941;-59
2022/05/17 06:44:20;;;;;;;;;;;;;;;18.36;62.81;98482.00;5143536;27;20361;-59
2022/05/17 06:46:48;;;;;;;;;;;;;;;18.20;61.47;98477.22;5155247;27;19992;-59
2022/05/17 06:49:23;;;;;;;;;;;;;;;18.20;60.99;98481.94;5165538;27;19963;-59
2022/05/17 06:51:52;;;;;;;;;;;;;;;18.41;60.66;98481.75;5143169;27;20362;-59
2022/05/17 06:54:45;;;;;;;;;;;;;;;18.54;60.37;98480.56;5146587;27;19919;-59
2022/05/17 06:57:14;;;;;;;;;;;;;;;18.69;57.27;98482.59;5160996;27;19922;-59
2022/05/17 06:59:55;;;;;;;;;;;;;;;18.72;58.67;98487.41;5159549;27;20266;-59
2022/05/17 07:02:23;;;;;;;;;;;;;;;18.84;57.65;98490.09;5137319;27;19918;-60
2022/05/17 07:04:52;;;;;;;;;;;;;;;19.07;55.40;98490.34;5135254;27;19919;-58
2022/05/17 07:07:20;;;;;;;;;;;;;;;18.94;55.73;98487.97;5145619;27;19918;-58
2022/05/17 07:15:17;;;;;;;;;;;;;;;18.65;55.29;98497.41;5166701;27;20320;-59
2022/05/17 07:17:47;;;;;;;;;;;;;;;18.75;55.21;98496.91;5141278;27;19920;-58
2022/05/17 07:20:22;;;;;;;;;;;;;;;18.83;55.15;98501.47;5146562;27;19920;-58
2022/05/17 07:22:51;;;;;;;;;;;;;;;18.98;55.51;98500.69;5146402;27;19918;-58
2022/05/17 07:25:19;;;;;;;;;;;;;;;19.09;55.73;98503.75;5148864;27;20391;-58
2022/05/17 07:27:48;;;;;;;;;;;;;;;19.23;54.40;98501.38;5150305;27;19923;-58
2022/05/17 07:30:15;;;;;;;;;;;;;;;19.40;54.21;98504.94;5148849;27;19972;-59
2022/05/17 07:32:45;;;;;;;;;;;;;;;19.42;53.04;98513.63;5150695;27;19935;-58
2022/05/17 07:35:18;;;;;;;;;;;;;;;19.48;53.51;98506.69;5151031;27;20374;-58
2022/05/17 07:37:47;;;;;;;;;;;;;;;19.32;53.41;98513.00;5148889;27;20013;-58
2022/05/17 07:40:15;;;;;;;;;;;;;;;19.31;53.10;98516.91;5149160;27;19919;-58
2022/05/17 07:42:43;;;;;;;;;;;;;;;19.51;53.50;98508.75;5142622;27;19926;-58
2022/05/17 07:45:16;;;;;;;;;;;;;;;19.56;52.78;98514.00;5144856;27;19919;-58
2022/05/17 07:47:47;;;;;;;;;;;;;;;19.82;52.46;98508.75;5156641;27;20351;-59
2022/05/17 07:50:15;;;;;;;;;;;;;;;19.80;51.20;98510.25;5148834;27;19964;-58
2022/05/17 07:52:43;;;;;;;;;;;;;;;19.96;50.61;98513.00;5155819;27;19966;-58
2022/05/17 07:55:12;;;;;;;;;;;;;;;19.95;51.11;98506.69;5162133;27;20262;-59
2022/05/17 07:57:41;;;;;;;;;;;;;;;20.10;50.60;98507.81;5150935;27;19919;-58
2022/05/17 08:00:09;;;;;;;;;;;;;;;19.69;50.79;98501.75;5143109;27;19964;-58
2022/05/17 08:02:40;;;;;;;;;;;;;;;19.73;50.58;98510.09;5164794;27;19927;-58
2022/05/17 08:05:11;;;;;;;;;;;;;;;20.17;50.11;98505.22;5130950;27;19919;-59
2022/05/17 08:07:39;;;;;;;;;;;;;;;20.32;49.98;98504.38;5150169;27;20326;-58
2022/05/17 08:10:07;;;;;;;;;;;;;;;20.58;49.93;98502.97;5156390;27;19920;-59
2022/05/17 08:12:36;;;;;;;;;;;;;;;20.45;50.89;98505.03;5145888;27;19923;-59
2022/05/17 08:15:05;;;;;;;;;;;;;;;20.29;52.11;98507.84;5156179;27;19919;-60
2022/05/17 08:17:33;;;;;;;;;;;;;;;20.04;52.51;98512.81;5146933;27;19926;-59
2022/05/17 08:20:01;;;;;;;;;;;;;;;19.55;53.05;98501.38;5150536;27;19926;-59
2022/05/17 08:22:30;;;;;;;;;;;;;;;19.69;52.81;98501.75;5156345;27;19923;-59
2022/05/17 08:27:44;;;;;;;;;;;;;;;19.94;51.23;98502.34;5136745;27;19980;-59
2022/05/17 08:30:14;;;;;;;;;;;;;;;19.97;48.84;98506.31;5155516;27;20351;-59
2022/05/17 08:35:33;;;;;;;;;;;;;;;20.38;48.69;98491.88;5152024;27;19919;-59
2022/05/17 08:38:02;;;;;;;;;;;;;;;20.63;47.40;98499.91;5160310;27;20014;-59
2022/05/17 08:40:32;;;;;;;;;;;;;;;20.45;48.03;98493.19;5152018;27;20259;-59
2022/05/17 08:43:03;;;;;;;;;;;;;;;20.38;48.78;98493.84;5152980;27;19927;-59
2022/05/17 08:45:33;;;;;;;;;;;;;;;20.47;47.87;98501.94;5153801;27;20014;-57
2022/05/17 08:48:01;;;;;;;;;;;;;;;20.32;47.50;98496.09;5145925;27;20266;-57
2022/05/17 08:50:31;;;;;;;;;;;;;;;20.57;47.46;98496.66;5129955;27;19926;-57
2022/05/17 08:53:01;;;;;;;;;;;;;;;20.59;47.92;98501.81;5163341;27;19945;-59
2022/05/17 08:55:31;;;;;;;;;;;;;;;20.87;47.04;98498.81;5157017;27;19923;-59
2022/05/17 08:58:01;;;;;;;;;;;;;;;20.82;47.87;98508.19;5151428;27;19970;-58
2022/05/17 09:00:30;;;;;;;;;;;;;;;20.83;48.05;98504.28;5147117;27;20255;-59
2022/05/17 09:03:01;;;;;;;;;;;;;;;20.97;47.98;98508.47;5155095;27;19971;-58
2022/05/17 09:05:33;;;;;;;;;;;;;;;20.66;48.15;98502.72;5154610;27;20269;-59
2022/05/17 09:08:09;;;;;;;;;;;;;;;20.49;48.59;98497.66;5153301;27;20363;-59
2022/05/17 09:10:38;;;;;;;;;;;;;;;20.71;48.20;98500.84;5161761;27;20030;-59
2022/05/17 09:13:09;;;;;;;;;;;;;;;20.85;48.26;98496.41;5157913;27;19919;-59
2022/05/17 09:15:37;;;;;;;;;;;;;;;20.83;47.46;98509.81;5152407;27;19926;-59
2022/05/17 09:18:07;;;;;;;;;;;;;;;21.03;47.58;98507.00;5159321;27;19926;-59
2022/05/17 09:20:36;;;;;;;;;;;;;;;20.97;47.64;98500.19;5149315;27;19926;-60
2022/05/17 09:23:04;;;;;;;;;;;;;;;21.49;47.38;98501.53;5150690;27;19926;-60
2022/05/17 09:25:46;;;;;;;;;;;;;;;21.47;47.93;98506.66;5139834;27;19920;-59
2022/05/17 09:28:17;;;;;;;;;;;;;;;21.51;48.08;98504.72;5151840;27;20359;-59
2022/05/17 09:30:46;;;;;;;;;;;;;;;20.87;49.64;98504.31;5158438;27;19919;-59
2022/05/17 09:33:15;;;;;;;;;;;;;;;20.53;50.01;98504.06;5149667;27;20259;-59
2022/05/17 09:35:47;;;;;;;;;;;;;;;20.73;48.39;98510.38;5156155;27;19919;-58
2022/05/17 09:38:15;;;;;;;;;;;;;;;20.76;47.40;98509.63;5153781;27;20362;-58
2022/05/17 09:40:48;;;;;;;;;;;;;;;21.02;46.48;98500.69;5154562;27;20413;-58
2022/05/17 09:43:18;;;;;;;;;;;;;;;20.82;46.38;98502.66;5158582;27;19954;-58
2022/05/17 09:45:49;;;;;;;;;;;;;;;20.92;46.53;98501.28;5156955;27;20464;-60
2022/05/17 09:48:28;;;;;;;;;;;;;;;20.84;47.06;98499.56;5162969;27;20452;-59
2022/05/17 09:53:44;;;;;;;;;;;;;;;21.70;44.92;98501.91;5155486;27;20413;-58
2022/05/17 09:56:12;;;;;;;;;;;;;;;21.64;45.63;98498.66;5151594;27;19962;-58
2022/05/17 09:58:44;;;;;;;;;;;;;;;21.50;45.42;98497.59;5155107;27;20417;-58
2022/05/17 10:01:13;;;;;;;;;;;;;;;21.12;46.21;98499.28;5156714;27;20347;-58
2022/05/17 10:03:44;;;;;;;;;;;;;;;20.95;46.30;98495.03;5156506;27;21342;-58
2022/05/17 10:06:15;;;;;;;;;;;;;;;21.00;46.20;98494.72;5151228;27;20378;-58
2022/05/17 10:08:44;;;;;;;;;;;;;;;21.05;46.26;98493.63;5156536;27;19987;-58
2022/05/17 10:11:17;;;;;;;;;;;;;;;21.15;45.76;98487.50;5152506;27;19944;-58
2022/05/17 10:13:55;;;;;;;;;;;;;;;21.49;44.53;98499.56;5147247;27;20248;-58
2022/05/17 10:16:24;;;;;;;;;;;;;;;21.56;44.60;98501.66;5146274;27;20180;-61
2022/05/17 10:19:20;;;;;;;;;;;;;;;21.63;45.45;98502.59;5162562;27;19966;-58
2022/05/17 10:22:19;;;;;;;;;;;;;;;21.50;44.76;98497.59;5147998;27;19926;-57
2022/05/17 10:24:49;;;;;;;;;;;;;;;21.31;44.87;98490.97;5162866;27;20349;-58
2022/05/17 10:27:18;;;;;;;;;;;;;;;21.56;44.57;98491.38;5139682;27;19919;-58
2022/05/17 10:29:50;;;;;;;;;;;;;;;21.83;43.84;98485.88;5144862;27;19919;-57
2022/05/17 10:32:21;;;;;;;;;;;;;;;21.90;44.42;98489.56;5156818;27;19919;-58
2022/05/17 10:38:39;;;;;;;;;;;;;;;21.98;43.90;98491.25;5152674;27;19919;-58
2022/05/17 10:41:10;;;;;;;;;;;;;;;21.92;43.92;98486.44;5150780;27;20014;-58
2022/05/17 10:43:39;;;;;;;;;;;;;;;21.96;44.16;98485.31;5146565;27;19919;-58
2022/05/17 10:46:11;;;;;;;;;;;;;;;21.81;44.11;98480.72;5131751;27;19923;-58
2022/05/17 10:48:42;;;;;;;;;;;;;;;21.76;43.72;98478.28;5148018;27;19923;-58
2022/05/17 10:51:13;;;;;;;;;;;;;;;22.01;43.70;98475.91;5140224;27;19987;-58
2022/05/17 10:53:48;;;;;;;;;;;;;;;22.18;42.80;98477.34;5134575;27;20287;-57
2022/05/17 10:56:19;;;;;;;;;;;;;;;22.31;42.17;98481.47;5142284;27;19919;-58
2022/05/17 10:58:49;;;;;;;;;;;;;;;22.16;41.95;98476.94;5141899;27;19947;-58
2022/05/17 11:01:21;;;;;;;;;;;;;;;22.32;41.59;98476.72;5156965;27;19958;-58
2022/05/17 11:04:00;;;;;;;;;;;;;;;22.53;41.01;98467.88;5141995;27;19919;-58
2022/05/17 11:06:28;;;;;;;;;;;;;;;22.39;41.36;98469.31;5150842;27;19963;-58
2022/05/17 11:08:59;;;;;;;;;;;;;;;22.40;41.49;98472.88;5154380;27;19930;-58
2022/05/17 11:11:30;;;;;;;;;;;;;;;22.16;42.08;98479.69;5152860;27;19925;-58
2022/05/17 11:14:00;;;;;;;;;;;;;;;21.95;42.81;98471.84;5139732;27;19919;-58
2022/05/17 11:16:31;;;;;;;;;;;;;;;22.14;42.29;98473.72;5150933;27;20025;-58
2022/05/17 11:19:24;;;;;;;;;;;;;;;22.20;41.56;98469.44;5156803;27;20360;-59
2022/05/17 11:21:59;;;;;;;;;;;;;;;22.17;41.58;98476.53;5147749;27;20005;-59
2022/05/17 11:24:28;;;;;;;;;;;;;;;;;;5160911;27;19925;-59
2022/05/17 11:27:03;;;;;;;;;;;;;;;22.04;41.65;98463.28;5143662;27;19927;-58
2022/05/17 11:32:32;;;;;;;;;;;;;;;22.28;41.42;98465.63;5150961;27;19919;-59
2022/05/17 11:35:02;;;;;;;;;;;;;;;22.34;41.20;98463.31;5159953;27;19959;-58
2022/05/17 11:37:49;;;;;;;;;;;;;;;22.36;41.08;98458.19;5161540;27;20369;-58
2022/05/17 11:40:40;;;;;;;;;;;;;;;22.28;41.29;98459.28;5153817;27;19971;-58
2022/05/17 11:45:55;;;;;;;;;;;;;;;22.49;40.19;98452.03;5117994;27;20270;-58
2022/05/17 11:48:25;;;;;;;;;;;;;;;22.49;40.53;98449.28;5148931;27;19954;-59
2022/05/17 11:50:57;;;;;;;;;;;;;;;22.87;39.35;98447.31;5155388;27;19923;-59
2022/05/17 11:53:34;;;;;;;;;;;;;;;22.44;40.51;98457.91;5149546;27;19922;-58
2022/05/17 11:56:15;;;;;;;;;;;;;;;22.63;40.45;98447.84;5152372;27;20018;-58
2022/05/17 11:58:46;;;;;;;;;;;;;;;22.62;40.41;98451.78;5136063;27;20013;-58
2022/05/17 12:01:32;;;;;;;;;;;;;;;22.90;40.64;98452.13;5144888;27;19925;-59
2022/05/17 12:04:02;;;;;;;;;;;;;;;22.67;40.96;98443.16;5160769;27;20371;-59
2022/05/17 12:06:32;;;;;;;;;;;;;;;22.40;40.61;98443.22;5167543;27;19918;-59
2022/05/17 12:09:01;;;;;;;;;;;;;;;22.27;40.00;98443.88;5156515;27;20002;-59
2022/05/17 12:11:34;;;;;;;;;;;;;;;22.43;40.21;98441.69;5164745;27;19979;-58
2022/05/17 12:14:08;;;;;;;;;;;;;;;22.51;40.65;98437.81;5155132;27;19923;-58
2022/05/17 12:19:36;;;;;;;;;;;;;;;22.51;40.44;98431.47;5140215;27;19927;-58
2022/05/17 12:22:06;;;;;;;;;;;;;;;22.46;40.14;98433.41;5122028;27;19927;-58
2022/05/17 12:27:35;;;;;;;;;;;;;;;22.66;39.06;98436.00;5148847;27;19919;-59
2022/05/17 12:32:54;;;;;;;;;;;;;;;22.59;40.11;98438.72;5147626;27;20335;-58
2022/05/17 12:35:26;;;;;;;;;;;;;;;22.47;40.83;98425.91;5152165;27;19969;-58
2022/05/17 12:37:59;;;;;;;;;;;;;;;22.59;40.48;98422.09;5160367;27;19923;-57
2022/05/17 12:43:14;;;;;;;;;;;;;;;22.93;40.29;98417.34;5149907;27;19954;-60
2022/05/17 12:45:43;;;;;;;;;;;;;;;22.94;40.05;98428.03;5158490;27;20190;-60
2022/05/17 12:48:14;;;;;;;;;;;;;;;22.83;40.16;98427.09;5160838;27;19922;-60
2022/05/17 12:50:45;;;;;;;;;;;;;;;23.20;38.48;98423.53;5163562;27;20108;-61
2022/05/17 12:53:17;;;;;;;;;;;;;;;22.85;39.70;98419.22;5155987;27;19919;-59
2022/05/17 12:56:00;;;;;;;;;;;;;;;23.05;38.86;98413.47;5163325;27;19919;-59
2022/05/17 12:58:57;;;;;;;;;;;;;;;22.81;39.95;98421.16;5144586;27;20116;-59
2022/05/17 13:01:27;;;;;;;;;;;;;;;22.67;39.97;98419.00;5152966;27;19924;-60
2022/05/17 13:03:55;;;;;;;;;;;;;;;22.55;40.43;98415.72;5165262;27;19922;-59
2022/05/17 13:06:33;;;;;;;;;;;;;;;22.53;40.66;98418.03;5158716;27;19923;-58
2022/05/17 13:09:01;;;;;;;;;;;;;;;22.57;41.27;98416.13;5158989;27;19925;-60
2022/05/17 13:11:32;;;;;;;;;;;;;;;22.58;40.62;98412.19;5154186;27;19968;-59
2022/05/17 13:14:00;;;;;;;;;;;;;;;22.77;39.52;98420.31;5144028;27;19919;-60
2022/05/17 13:16:29;;;;;;;;;;;;;;;22.71;39.44;98413.53;5145037;27;19919;-60
2022/05/17 13:18:59;;;;;;;;;;;;;;;22.73;39.49;98413.94;5166221;27;19919;-60
2022/05/17 13:21:34;;;;;;;;;;;;;;;22.51;39.60;98410.13;5150915;27;20132;-57
2022/05/17 13:24:05;;;;;;;;;;;;;;;22.41;40.20;98406.06;5145628;27;19926;-58
2022/05/17 13:26:36;;;;;;;;;;;;;;;22.43;39.68;98405.69;5140218;27;19923;-58
2022/05/17 13:29:12;;;;;;;;;;;;;;;22.76;39.20;98407.63;5128420;27;20333;-59
2022/05/17 13:31:40;;;;;;;;;;;;;;;22.83;38.31;98401.38;5140496;27;20385;-58
2022/05/17 13:34:08;;;;;;;;;;;;;;;22.98;38.71;98398.38;5152222;27;20022;-58
2022/05/17 13:36:39;;;;;;;;;;;;;;;23.15;38.25;98396.16;5150813;27;19920;-58
2022/05/17 13:39:20;;;;;;;;;;;;;;;23.28;37.83;98389.16;5155067;27;19919;-58
2022/05/17 13:41:53;;;;;;;;;;;;;;;23.27;38.28;98381.97;5152774;27;19923;-58
2022/05/17 13:44:28;;;;;;;;;;;;;;;23.53;36.98;98381.00;5150714;27;20006;-58
2022/05/17 13:46:57;;;;;;;;;;;;;;;23.34;37.96;98370.97;5147989;27;20271;-58
2022/05/17 13:49:26;;;;;;;;;;;;;;;23.40;37.27;98374.97;5131399;27;19957;-58
2022/05/17 13:51:57;;;;;;;;;;;;;;;23.47;36.36;98363.91;5164853;27;19990;-58
2022/05/17 13:54:31;;;;;;;;;;;;;;;23.47;37.58;98377.00;5142966;27;20350;-56
2022/05/17 13:57:01;;;;;;;;;;;;;;;23.46;37.20;98362.34;5141081;27;20005;-57
2022/05/17 13:59:30;;;;;;;;;;;;;;;23.39;37.30;98376.16;5129414;27;20351;-58
2022/05/17 14:01:58;;;;;;;;;;;;;;;23.44;36.88;98373.03;5141323;27;20350;-58
2022/05/17 14:04:29;;;;;;;;;;;;;;;23.49;36.77;98369.91;5159214;27;19942;-58